createdAt,value
2022-09-21T00:01:19.801Z,7.55
2022-09-21T00:03:47.150Z,8.73
2022-09-21T00:06:18.707Z,4.32
2022-09-21T00:08:46.734Z,5.28
2022-09-21T00:11:20.578Z,6.15
2022-09-21T00:13:47.838Z,4.25
2022-09-21T00:16:16.637Z,4.28
2022-09-21T00:18:43.821Z,4.05
2022-09-21T00:21:13.134Z,4.75
2022-09-21T00:23:41.630Z,4.72
2022-09-21T00:26:14.668Z,8.10
2022-09-21T00:28:42.051Z,3.80
2022-09-21T00:31:12.389Z,2.47
2022-09-21T00:33:41.055Z,4.90
2022-09-21T00:36:17.067Z,4.55
2022-09-21T00:38:45.342Z,3.40
2022-09-21T00:41:13.664Z,3.67
2022-09-21T00:43:45.355Z,2.10
2022-09-21T00:46:24.968Z,4.80
2022-09-21T00:48:51.889Z,5.05
2022-09-21T00:51:18.839Z,4.50
2022-09-21T00:53:46.748Z,2.58
2022-09-21T00:56:15.668Z,5.60
2022-09-21T00:58:46.843Z,4.40
2022-09-21T01:01:16.628Z,2.63
2022-09-21T01:03:45.778Z,3.72
2022-09-21T01:06:14.481Z,4.20
2022-09-21T01:08:42.844Z,6.95
2022-09-21T01:11:32.783Z,3.65
2022-09-21T01:14:08.034Z,4.10
2022-09-21T01:16:40.878Z,4.70
2022-09-21T01:19:40.090Z,5.30
2022-09-21T01:22:22.134Z,3.60
2022-09-21T01:25:00.399Z,6.65
2022-09-21T01:27:51.914Z,3.97
2022-09-21T01:30:21.800Z,4.67
2022-09-21T01:33:09.770Z,3.03
2022-09-21T01:35:42.710Z,3.40
2022-09-21T01:38:15.694Z,4.65
2022-09-21T01:40:46.253Z,5.20
2022-09-21T01:43:20.183Z,5.50
2022-09-21T01:45:52.149Z,2.88
2022-09-21T01:48:22.404Z,6.20
2022-09-21T01:50:55.083Z,4.90
2022-09-21T01:53:39.898Z,3.95
2022-09-21T01:56:13.513Z,4.68
2022-09-21T01:58:45.332Z,3.92
2022-09-21T02:01:16.220Z,6.03
2022-09-21T02:03:49.950Z,4.55
2022-09-21T02:06:18.739Z,4.88
2022-09-21T02:08:46.666Z,7.10
2022-09-21T02:11:13.456Z,6.95
2022-09-21T02:13:45.647Z,3.88
2022-09-21T02:16:24.325Z,3.55
2022-09-21T02:19:10.939Z,5.40
2022-09-21T02:21:49.484Z,3.53
2022-09-21T02:24:38.554Z,4.80
2022-09-21T02:30:11.807Z,6.32
2022-09-21T02:32:43.709Z,5.03
2022-09-21T02:35:19.779Z,6.38
2022-09-21T02:38:07.238Z,11.32
2022-09-21T02:41:03.589Z,6.13
2022-09-21T02:43:48.993Z,7.75
2022-09-21T02:46:24.356Z,7.70
2022-09-21T02:48:58.493Z,7.63
2022-09-21T02:51:35.074Z,5.85
2022-09-21T02:54:06.511Z,6.45
2022-09-21T02:56:33.906Z,6.45
2022-09-21T02:59:04.649Z,8.40
2022-09-21T03:01:33.185Z,6.95
2022-09-21T03:04:00.363Z,5.25
2022-09-21T03:06:27.141Z,9.30
2022-09-21T03:08:53.984Z,7.47
2022-09-21T03:11:20.875Z,4.57
2022-09-21T03:13:47.650Z,4.68
2022-09-21T03:16:17.303Z,4.03
2022-09-21T03:18:44.571Z,4.88
2022-09-21T03:21:12.348Z,6.70
2022-09-21T03:23:40.123Z,4.82
2022-09-21T03:26:07.239Z,4.40
2022-09-21T03:28:34.446Z,4.65
2022-09-21T03:31:01.293Z,4.85
2022-09-21T03:33:27.989Z,4.72
2022-09-21T03:35:54.811Z,7.47
2022-09-21T03:38:21.954Z,4.70
2022-09-21T03:40:49.820Z,5.85
2022-09-21T03:43:17.778Z,5.30
2022-09-21T03:45:44.762Z,8.00
2022-09-21T03:48:12.166Z,7.25
2022-09-21T03:50:39.058Z,3.53
2022-09-21T03:53:05.999Z,5.80
2022-09-21T03:55:33.323Z,5.72
2022-09-21T03:58:00.043Z,5.75
2022-09-21T04:00:27.212Z,7.70
2022-09-21T04:07:15.407Z,7.15
2022-09-21T04:09:42.183Z,8.07
2022-09-21T04:12:08.884Z,9.90
2022-09-21T04:14:35.557Z,5.95
2022-09-21T04:17:02.356Z,9.25
2022-09-21T04:19:29.099Z,6.82
2022-09-21T04:21:56.268Z,12.52
2022-09-21T04:24:23.491Z,8.30
2022-09-21T04:26:50.337Z,7.72
2022-09-21T04:29:17.110Z,7.40
2022-09-21T04:31:43.771Z,9.40
2022-09-21T04:34:13.689Z,6.88
2022-09-21T04:36:40.426Z,12.73
2022-09-21T04:39:07.183Z,8.15
2022-09-21T04:41:33.836Z,11.98
2022-09-21T04:44:01.344Z,12.13
2022-09-21T04:46:28.106Z,11.77
2022-09-21T04:48:55.091Z,11.02
2022-09-21T04:51:21.739Z,12.10
2022-09-21T04:53:48.444Z,13.57
2022-09-21T04:56:16.590Z,14.40
2022-09-21T04:58:43.843Z,11.23
2022-09-21T05:01:11.848Z,14.55
2022-09-21T05:03:38.955Z,20.88
2022-09-21T05:06:05.966Z,13.95
2022-09-21T05:08:51.572Z,15.10
2022-09-21T05:11:19.440Z,11.38
2022-09-21T05:13:47.279Z,13.52
2022-09-21T05:16:15.166Z,12.40
2022-09-21T05:18:47.287Z,14.23
2022-09-21T05:21:15.024Z,14.60
2022-09-21T05:23:42.053Z,11.57
2022-09-21T05:26:08.839Z,12.68
2022-09-21T05:28:40.279Z,13.20
2022-09-21T05:31:32.048Z,17.48
2022-09-21T05:34:11.372Z,11.27
2022-09-21T05:36:40.804Z,13.95
2022-09-21T05:39:08.201Z,12.15
2022-09-21T05:41:35.227Z,13.85
2022-09-21T05:44:02.301Z,14.98
2022-09-21T05:46:31.807Z,12.77
2022-09-21T05:49:06.030Z,13.85
2022-09-21T05:51:55.730Z,11.85
2022-09-21T05:54:26.495Z,14.38
2022-09-21T05:57:00.618Z,12.93
2022-09-21T05:59:48.731Z,10.35
2022-09-21T06:02:53.649Z,9.65
2022-09-21T06:05:21.007Z,11.98
2022-09-21T06:07:47.758Z,11.63
2022-09-21T06:10:16.060Z,8.25
2022-09-21T06:12:43.165Z,8.18
2022-09-21T06:15:13.919Z,9.35
2022-09-21T06:17:41.309Z,12.63
2022-09-21T06:20:08.470Z,7.10
2022-09-21T06:22:35.590Z,7.43
2022-09-21T06:25:02.293Z,8.75
2022-09-21T06:27:29.985Z,9.45
2022-09-21T06:29:59.522Z,8.10
2022-09-21T06:32:26.427Z,6.28
2022-09-21T06:34:53.144Z,6.70
2022-09-21T06:37:19.918Z,7.55
2022-09-21T06:39:46.567Z,6.43
2022-09-21T06:42:13.299Z,6.90
2022-09-21T06:44:40.023Z,8.30
2022-09-21T06:47:06.790Z,6.13
2022-09-21T06:49:33.511Z,9.95
2022-09-21T06:52:04.085Z,5.45
2022-09-21T06:54:30.942Z,6.75
2022-09-21T06:57:00.099Z,4.28
2022-09-21T06:59:26.978Z,7.00
2022-09-21T07:01:55.800Z,6.53
2022-09-21T07:04:25.325Z,3.85
2022-09-21T07:06:52.126Z,9.43
2022-09-21T07:12:07.179Z,5.82
2022-09-21T07:14:34.194Z,6.93
2022-09-21T07:17:00.896Z,5.30
2022-09-21T07:19:27.622Z,11.55
2022-09-21T07:21:55.551Z,5.57
2022-09-21T07:24:22.297Z,7.68
2022-09-21T07:26:50.671Z,4.88
2022-09-21T07:29:17.386Z,4.60
2022-09-21T07:31:48.556Z,4.07
2022-09-21T07:34:16.819Z,4.43
2022-09-21T07:36:43.770Z,2.72
2022-09-21T07:39:10.809Z,3.25
2022-09-21T07:41:37.822Z,3.08
2022-09-21T07:44:05.270Z,4.30
2022-09-21T07:46:32.216Z,6.05
2022-09-21T07:48:59.058Z,4.25
2022-09-21T07:51:26.609Z,2.47
2022-09-21T07:53:59.867Z,3.35
2022-09-21T07:56:26.676Z,3.72
2022-09-21T07:59:08.403Z,4.15
2022-09-21T08:01:40.351Z,5.07
2022-09-21T08:04:09.688Z,4.75
2022-09-21T08:06:40.320Z,3.38
2022-09-21T08:09:08.662Z,2.45
2022-09-21T08:11:37.485Z,3.92
2022-09-21T08:14:04.660Z,2.88
2022-09-21T08:16:32.223Z,3.38
2022-09-21T08:18:59.834Z,2.38
2022-09-21T08:21:26.740Z,3.75
2022-09-21T08:23:53.927Z,3.45
2022-09-21T08:26:20.792Z,3.22
2022-09-21T08:28:49.950Z,4.95
2022-09-21T08:31:19.762Z,2.00
2022-09-21T08:33:47.726Z,2.70
2022-09-21T08:36:14.599Z,4.88
2022-09-21T08:38:41.468Z,1.52
2022-09-21T08:41:20.624Z,5.63
2022-09-21T08:44:02.667Z,4.60
2022-09-21T08:46:32.885Z,2.25
2022-09-21T08:49:04.111Z,3.83
2022-09-21T08:51:36.703Z,20.40
2022-09-21T08:54:19.386Z,4.10
2022-09-21T08:57:04.529Z,2.78
2022-09-21T08:59:33.390Z,2.28
2022-09-21T09:02:06.032Z,1.98
2022-09-21T09:04:36.683Z,2.10
2022-09-21T09:07:15.482Z,4.35
2022-09-21T09:09:48.707Z,2.58
2022-09-21T09:12:53.941Z,1.35
2022-09-21T09:15:41.876Z,2.20
2022-09-21T09:18:42.759Z,2.83
2022-09-21T09:21:24.106Z,1.25
2022-09-21T09:24:03.114Z,2.55
2022-09-21T09:26:51.539Z,1.80
2022-09-21T09:29:52.571Z,5.38
2022-09-21T09:32:24.175Z,3.35
2022-09-21T09:35:22.924Z,1.65
2022-09-21T09:37:52.213Z,1.27
2022-09-21T09:40:34.421Z,2.15
2022-09-21T09:43:11.974Z,1.48
2022-09-21T09:46:01.693Z,4.53
2022-09-21T09:48:38.126Z,2.40
2022-09-21T09:51:11.470Z,1.08
2022-09-21T09:53:38.701Z,3.22
2022-09-21T09:56:05.665Z,1.77
2022-09-21T09:58:35.178Z,2.28
2022-09-21T10:01:03.613Z,3.13
2022-09-21T10:03:30.507Z,4.10
2022-09-21T10:05:57.272Z,3.28
2022-09-21T10:08:44.573Z,4.00
2022-09-21T10:11:13.978Z,4.60
2022-09-21T10:13:46.459Z,2.95
2022-09-21T10:16:17.780Z,4.13
2022-09-21T10:18:58.988Z,6.43
2022-09-21T10:21:41.299Z,3.05
2022-09-21T10:24:18.791Z,1.65
2022-09-21T10:27:02.311Z,4.32
2022-09-21T10:29:48.815Z,4.90
2022-09-21T10:32:18.038Z,3.65
2022-09-21T10:35:07.752Z,1.95
2022-09-21T10:37:43.224Z,2.08
2022-09-21T10:40:35.743Z,11.40
2022-09-21T10:43:02.503Z,3.63
2022-09-21T10:45:31.936Z,5.40
2022-09-21T10:47:59.963Z,5.07
2022-09-21T10:50:36.894Z,3.90
2022-09-21T10:53:09.799Z,1.58
2022-09-21T10:56:11.971Z,2.13
2022-09-21T10:59:13.873Z,3.13
2022-09-21T11:01:49.199Z,4.05
2022-09-21T11:04:29.968Z,3.08
2022-09-21T11:07:32.403Z,1.10
2022-09-21T11:10:18.140Z,5.93
2022-09-21T11:12:59.016Z,2.17
2022-09-21T11:15:49.472Z,2.67
2022-09-21T11:18:16.217Z,1.20
2022-09-21T11:20:47.468Z,1.80
2022-09-21T11:23:28.887Z,1.90
2022-09-21T11:26:19.960Z,3.08
2022-09-21T11:29:03.546Z,1.45
2022-09-21T11:31:33.038Z,2.05
2022-09-21T11:34:27.204Z,1.95
2022-09-21T11:37:23.125Z,2.53
2022-09-21T11:40:33.253Z,1.85
2022-09-21T11:43:08.296Z,1.27
2022-09-21T11:45:40.671Z,1.50
2022-09-21T11:48:36.512Z,1.90
2022-09-21T11:51:45.249Z,4.20
2022-09-21T11:54:35.094Z,3.65
2022-09-21T11:57:20.317Z,1.35
2022-09-21T12:00:16.031Z,3.60
2022-09-21T12:03:18.551Z,1.73
2022-09-21T12:05:54.133Z,2.33
2022-09-21T12:08:42.459Z,1.15
2022-09-21T12:11:25.486Z,3.63
2022-09-21T12:13:58.328Z,3.13
2022-09-21T12:16:50.927Z,2.03
2022-09-21T12:19:55.424Z,1.52
2022-09-21T12:22:33.816Z,2.08
2022-09-21T12:25:13.571Z,2.88
2022-09-21T12:27:47.531Z,3.17
2022-09-21T12:30:20.750Z,2.38
2022-09-21T12:33:03.655Z,1.35
2022-09-21T12:35:42.562Z,2.10
2022-09-21T12:41:31.534Z,4.28
2022-09-21T12:44:52.236Z,2.75
2022-09-21T12:47:47.062Z,2.60
2022-09-21T12:50:21.251Z,2.05
2022-09-21T12:52:50.106Z,3.33
2022-09-21T12:55:29.019Z,2.85
2022-09-21T12:58:17.449Z,3.78
2022-09-21T13:01:14.580Z,2.40
2022-09-21T13:04:16.311Z,3.42
2022-09-21T13:07:00.470Z,3.85
2022-09-21T13:09:28.798Z,5.53
2022-09-21T13:12:09.312Z,4.03
2022-09-21T13:14:43.569Z,2.63
2022-09-21T13:17:23.572Z,2.92
2022-09-21T13:20:05.198Z,4.57
2022-09-21T13:22:37.458Z,1.88
2022-09-21T13:25:18.785Z,4.95
2022-09-21T13:28:13.614Z,7.15
2022-09-21T13:30:45.653Z,2.15
2022-09-21T13:33:23.869Z,1.48
2022-09-21T13:36:02.376Z,5.00
2022-09-21T13:38:41.332Z,3.00
2022-09-21T13:41:21.188Z,1.85
2022-09-21T13:43:59.710Z,3.33
2022-09-21T13:46:32.241Z,1.65
2022-09-21T13:49:21.278Z,4.00
2022-09-21T13:52:03.252Z,3.72
2022-09-21T13:57:36.954Z,6.20
2022-09-21T14:00:15.178Z,0.73
2022-09-21T14:02:50.091Z,2.55
2022-09-21T14:05:25.754Z,2.25
2022-09-21T14:08:03.120Z,2.78
2022-09-21T14:10:32.278Z,3.33
2022-09-21T14:13:01.179Z,2.30
2022-09-21T14:15:38.695Z,6.70
2022-09-21T14:18:11.931Z,2.47
2022-09-21T14:20:39.538Z,2.88
2022-09-21T14:23:22.695Z,1.80
2022-09-21T14:26:02.202Z,4.45
2022-09-21T14:28:43.359Z,3.90
2022-09-21T14:31:19.041Z,2.00
2022-09-21T14:33:54.402Z,3.10
2022-09-21T14:36:41.948Z,3.72
2022-09-21T14:39:40.667Z,4.47
2022-09-21T14:42:23.283Z,3.17
2022-09-21T14:44:51.761Z,1.52
2022-09-21T14:47:21.215Z,2.97
2022-09-21T14:49:57.567Z,1.10
2022-09-21T14:52:40.934Z,2.03
2022-09-21T14:55:31.579Z,6.13
2022-09-21T14:58:32.143Z,1.98
2022-09-21T15:01:21.486Z,3.50
2022-09-21T15:03:49.076Z,2.85
2022-09-21T15:06:41.371Z,1.33
2022-09-21T15:09:42.844Z,7.05
2022-09-21T15:12:26.075Z,2.88
2022-09-21T15:15:20.467Z,5.03
2022-09-21T15:17:59.822Z,1.30
2022-09-21T15:20:29.617Z,6.10
2022-09-21T15:22:58.520Z,2.55
2022-09-21T15:25:28.391Z,6.30
2022-09-21T15:27:55.690Z,5.03
2022-09-21T15:30:29.393Z,3.50
2022-09-21T15:32:59.786Z,6.00
2022-09-21T15:35:29.383Z,6.43
2022-09-21T15:38:00.138Z,4.68
2022-09-21T15:40:36.548Z,5.13
2022-09-21T15:43:21.021Z,3.70
2022-09-21T15:46:01.206Z,3.47
2022-09-21T15:48:39.143Z,2.83
2022-09-21T15:51:24.815Z,5.97
2022-09-21T15:53:56.734Z,3.00
2022-09-21T15:59:08.871Z,6.10
2022-09-21T16:01:44.218Z,6.57
2022-09-21T16:04:19.879Z,3.92
2022-09-21T16:07:08.185Z,3.03
2022-09-21T16:09:46.222Z,3.03
2022-09-21T16:12:43.138Z,4.07
2022-09-21T16:15:25.585Z,3.60
2022-09-21T16:18:02.971Z,1.52
2022-09-21T16:20:45.918Z,3.53
2022-09-21T16:23:15.918Z,2.67
2022-09-21T16:25:43.518Z,3.88
2022-09-21T16:28:16.471Z,4.65
2022-09-21T16:30:55.182Z,3.05
2022-09-21T16:33:56.981Z,3.80
2022-09-21T16:36:26.449Z,4.35
2022-09-21T16:38:53.708Z,3.03
2022-09-21T16:41:21.526Z,1.77
2022-09-21T16:43:51.127Z,5.20
2022-09-21T16:46:19.058Z,4.57
2022-09-21T16:48:45.815Z,3.33
2022-09-21T16:51:14.615Z,3.83
2022-09-21T16:53:41.604Z,3.42
2022-09-21T16:56:14.667Z,4.82
2022-09-21T16:58:43.737Z,3.58
2022-09-21T17:01:15.860Z,8.88
2022-09-21T17:03:42.806Z,7.32
2022-09-21T17:06:18.027Z,7.20
2022-09-21T17:08:48.308Z,5.78
2022-09-21T17:11:19.996Z,8.15
2022-09-21T17:13:50.806Z,4.57
2022-09-21T17:16:20.228Z,4.75
2022-09-21T17:18:48.616Z,4.95
2022-09-21T17:21:16.430Z,8.48
2022-09-21T17:23:43.283Z,6.30
2022-09-21T17:26:19.409Z,2.35
2022-09-21T17:28:46.401Z,6.90
2022-09-21T17:31:16.480Z,8.75
2022-09-21T17:33:43.703Z,5.57
2022-09-21T17:36:13.909Z,5.45
2022-09-21T17:38:42.461Z,3.20
2022-09-21T17:41:18.192Z,5.18
2022-09-21T17:43:56.530Z,4.70
2022-09-21T17:46:41.429Z,3.25
2022-09-21T17:49:10.586Z,4.07
2022-09-21T17:51:56.066Z,5.85
2022-09-21T17:54:25.556Z,7.13
2022-09-21T17:57:06.953Z,7.13
2022-09-21T17:59:35.775Z,8.30
2022-09-21T18:02:11.244Z,5.22
2022-09-21T18:04:38.869Z,5.25
2022-09-21T18:07:06.017Z,7.30
2022-09-21T18:09:33.058Z,3.60
2022-09-21T18:12:39.428Z,3.65
2022-09-21T18:15:19.442Z,5.50
2022-09-21T18:17:55.198Z,3.97
2022-09-21T18:20:39.481Z,8.20
2022-09-21T18:23:15.608Z,4.45
2022-09-21T18:25:50.439Z,4.22
2022-09-21T18:28:36.684Z,7.75
2022-09-21T18:31:33.647Z,6.50
2022-09-21T18:34:13.262Z,7.30
2022-09-21T18:36:51.532Z,7.82
2022-09-21T18:39:18.299Z,7.97
2022-09-21T18:41:55.881Z,5.63
2022-09-21T18:44:36.423Z,6.30
2022-09-21T18:47:20.354Z,9.52
2022-09-21T18:50:15.367Z,10.90
2022-09-21T18:52:47.320Z,7.15
2022-09-21T18:58:01.148Z,8.27
2022-09-21T19:00:32.473Z,10.65
2022-09-21T19:03:16.370Z,10.25
2022-09-21T19:05:56.909Z,11.50
2022-09-21T19:11:15.037Z,6.68
2022-09-21T19:13:44.498Z,3.22
2022-09-21T19:16:17.519Z,4.93
2022-09-21T19:18:55.767Z,6.75
2022-09-21T19:21:54.859Z,5.28
2022-09-21T19:24:32.001Z,5.75
2022-09-21T19:27:07.795Z,4.72
2022-09-21T19:29:47.129Z,3.85
2022-09-21T19:32:17.140Z,6.40
2022-09-21T19:34:44.417Z,6.50
2022-09-21T19:37:11.540Z,3.55
2022-09-21T19:39:38.709Z,5.28
2022-09-21T19:42:11.565Z,5.35
2022-09-21T19:44:38.740Z,5.82
2022-09-21T19:47:25.852Z,10.50
2022-09-21T19:49:54.649Z,5.97
2022-09-21T19:52:34.725Z,5.60
2022-09-21T19:55:20.885Z,5.63
2022-09-21T19:58:06.484Z,3.92
2022-09-21T20:00:33.474Z,5.45
2022-09-21T20:03:11.143Z,5.80
2022-09-21T20:05:59.636Z,2.83
2022-09-21T20:08:30.383Z,7.07
2022-09-21T20:11:05.668Z,5.50
2022-09-21T20:13:38.148Z,4.45
2022-09-21T20:16:36.658Z,6.85
2022-09-21T20:19:15.127Z,5.03
2022-09-21T20:21:43.805Z,3.97
2022-09-21T20:24:31.816Z,6.88
2022-09-21T20:26:58.953Z,8.38
2022-09-21T20:29:25.713Z,4.15
2022-09-21T20:31:53.064Z,6.28
2022-09-21T20:34:20.266Z,7.10
2022-09-21T20:36:47.042Z,5.30
2022-09-21T20:39:13.744Z,4.10
2022-09-21T20:41:41.447Z,5.20
2022-09-21T20:44:12.362Z,5.30
2022-09-21T20:46:39.231Z,5.60
2022-09-21T20:49:08.228Z,5.93
2022-09-21T20:51:36.137Z,6.90
2022-09-21T20:54:03.968Z,4.97
2022-09-21T20:56:31.553Z,7.50
2022-09-21T20:58:59.310Z,6.45
2022-09-21T21:01:27.061Z,5.00
2022-09-21T21:04:01.738Z,4.57
2022-09-21T21:06:31.294Z,5.20
2022-09-21T21:08:58.533Z,10.20
2022-09-21T21:11:28.143Z,6.63
2022-09-21T21:13:56.174Z,6.10
2022-09-21T21:16:23.214Z,4.22
2022-09-21T21:18:50.260Z,8.43
2022-09-21T21:21:16.971Z,4.28
2022-09-21T21:24:02.244Z,4.05
2022-09-21T21:26:44.198Z,7.25
2022-09-21T21:29:15.576Z,3.83
2022-09-21T21:31:42.396Z,7.07
2022-09-21T21:34:09.253Z,6.32
2022-09-21T21:36:35.965Z,6.00
2022-09-21T21:39:03.809Z,5.82
2022-09-21T21:41:31.561Z,12.02
2022-09-21T21:43:59.189Z,6.95
2022-09-21T21:46:26.193Z,5.60
2022-09-21T21:48:57.107Z,6.13
2022-09-21T21:51:23.829Z,6.03
2022-09-21T21:53:50.798Z,5.60
2022-09-21T21:56:20.165Z,5.97
2022-09-21T21:58:46.854Z,3.10
2022-09-21T22:01:19.303Z,7.95
2022-09-21T22:03:46.285Z,6.93
2022-09-21T22:06:13.055Z,3.85
2022-09-21T22:08:40.825Z,6.22
2022-09-21T22:11:07.801Z,7.97
2022-09-21T22:13:39.190Z,6.55
2022-09-21T22:16:12.099Z,8.35
2022-09-21T22:18:39.922Z,6.53
2022-09-21T22:21:09.294Z,5.20
2022-09-21T22:23:36.618Z,7.03
2022-09-21T22:26:09.718Z,8.23
2022-09-21T22:28:37.078Z,6.53
2022-09-21T22:31:08.621Z,8.90
2022-09-21T22:33:35.488Z,7.35
2022-09-21T22:36:09.311Z,6.03
2022-09-21T22:38:41.970Z,8.15
2022-09-21T22:41:11.118Z,8.15
2022-09-21T22:43:38.445Z,6.13
2022-09-21T22:46:05.784Z,4.40
2022-09-21T22:48:33.098Z,2.33
2022-09-21T22:51:02.856Z,11.32
2022-09-21T22:53:30.021Z,4.03
2022-09-21T22:56:10.126Z,3.15
2022-09-21T22:58:49.367Z,8.02
2022-09-21T23:01:28.233Z,8.07
2022-09-21T23:03:59.464Z,5.53
2022-09-21T23:06:29.155Z,8.93
2022-09-21T23:08:57.601Z,5.82
2022-09-21T23:11:30.239Z,4.93
2022-09-21T23:13:58.342Z,10.25
2022-09-21T23:16:28.074Z,5.80
2022-09-21T23:18:55.973Z,5.88
2022-09-21T23:21:25.914Z,4.43
2022-09-21T23:24:00.112Z,3.85
2022-09-21T23:26:28.817Z,6.60
2022-09-21T23:29:10.090Z,6.75
2022-09-21T23:31:40.009Z,5.45
2022-09-21T23:34:13.468Z,7.00
2022-09-21T23:36:41.385Z,6.22
2022-09-21T23:39:11.726Z,7.43
2022-09-21T23:41:38.838Z,6.32
2022-09-21T23:44:06.084Z,6.07
2022-09-21T23:46:35.696Z,9.52
2022-09-21T23:49:02.913Z,9.23
2022-09-21T23:51:32.932Z,2.72
2022-09-21T23:54:00.116Z,3.95
2022-09-21T23:56:28.317Z,5.50
2022-09-21T23:58:55.081Z,7.72
